SADF

Details ICAO SADF
Name San Fernando
Region Argentina
Timezone America/Argentina/Buenos_Aires (UTC-3.0)
Plans Departing 124
Arriving 35
Stats Elevation 10 ft / 3 m (AMSL)
Location -34.454044° -58.590226°
Runways 1
Magnetic Variation 8.977° W
Sunrise 2018-06-18 11:01:18 UTC / 2018-06-18 08:01:18 Local
Sunset 2018-06-18 20:52:16 UTC / 2018-06-18 17:52:16 Local
Advertisement - Login to hide

Runways

ID Width Length Bearing (true) Bearing (mag) Surface Threshold Offset Overrun Length
05 131 ft / 40 m 5,904 ft / 1,800 m 44.03° 53.01° Asphalt 0 ft / 0 m 0 ft / 0 m
23 131 ft / 40 m 5,904 ft / 1,800 m 224.02° 233.00° Asphalt 899 ft / 274 m 0 ft / 0 m

Map

Weather


0- 5 10 15 20 25 30 35+ Temperature / ° C

Clouds and Precipitation
Forecast for 2018-06-18 12:00 UTC. Updated 5 hours ago

Ground ~20,000 ft ~40,000 ft Winds

METAR

SADF 181400Z 30004KT 270V330 CAVOK 11/03 Q1027

TAF

TAF SADF 181100Z 1812/1912 34005KT CAVOK TX16/1818Z TN07/1910Z BECMG 1814/1816 32010KT

Frequencies

Ground 121.65 MHz San Fernando GND
Tower 119.00 MHz San Fernando TWR AUX
Tower 120.70 MHz San Fernando TWR
Warning: Do not use this data for real-world aviation or navigation. No guarantee of current accuracy is given.